Time;durP1;ratioP1;P1;durP2;ratioP2;P2;SDS_P1;SDS_P2;PMS_P1;PMS_P2;Temp;Humidity;BMP_temperature;BMP_pressure;BME280_temperature;BME280_humidity;BME280_pressure;Samples;Min_cycle;Max_cycle;Signal;HPM_P1;HPM_P2
2022/04/30 00:00:58;;;;;;;6.30;6.00;;;;;;;6.11;100.00;101631.91;5051162;28;20569;-62
2022/04/30 00:03:28;;;;;;;6.28;5.97;;;;;;;6.02;100.00;101625.56;5056365;28;20032;-62
2022/04/30 00:05:56;;;;;;;6.70;6.40;;;;;;;6.13;100.00;101631.78;5055923;28;20448;-62
2022/04/30 00:08:22;;;;;;;6.28;5.97;;;;;;;6.09;100.00;101631.16;5050323;28;20433;-62
2022/04/30 00:10:49;;;;;;;6.20;5.90;;;;;;;6.01;100.00;101623.00;5050137;28;20035;-62
2022/04/30 00:13:15;;;;;;;6.35;6.05;;;;;;;6.06;100.00;101631.41;5049371;28;20061;-61
2022/04/30 00:15:41;;;;;;;6.03;5.82;;;;;;;5.93;100.00;101615.69;5049974;28;20055;-61
2022/04/30 00:18:09;;;;;;;6.32;6.03;;;;;;;5.99;100.00;101632.84;5051104;28;20028;-62
2022/04/30 00:20:36;;;;;;;6.50;6.20;;;;;;;5.98;100.00;101631.16;5050103;28;20052;-62
2022/04/30 00:23:02;;;;;;;6.40;6.10;;;;;;;5.98;100.00;101633.78;5050809;28;20025;-63
2022/04/30 00:25:28;;;;;;;6.15;5.85;;;;;;;5.94;100.00;101633.19;5050925;28;20087;-64
2022/04/30 00:27:53;;;;;;;5.90;5.70;;;;;;;5.90;100.00;101630.88;5052471;28;20488;-64
2022/04/30 00:30:19;;;;;;;6.05;5.78;;;;;;;5.86;100.00;101624.16;5052491;28;20025;-63
2022/04/30 00:32:45;;;;;;;6.15;5.85;;;;;;;5.85;100.00;101625.13;5057872;28;20066;-62
2022/04/30 00:35:11;;;;;;;6.40;6.10;;;;;;;5.80;100.00;101625.47;5054491;28;20028;-63
2022/04/30 00:37:36;;;;;;;6.18;5.88;;;;;;;5.88;100.00;101622.28;5060812;28;20028;-61
2022/04/30 00:40:02;;;;;;;6.40;6.10;;;;;;;5.86;100.00;101622.38;5054542;28;20035;-61
2022/04/30 00:42:29;;;;;;;6.28;5.97;;;;;;;5.85;100.00;101625.94;5053379;28;20090;-63
2022/04/30 00:44:54;;;;;;;5.82;5.63;;;;;;;5.87;100.00;101625.84;5053295;28;20049;-63
2022/04/30 00:47:19;;;;;;;6.30;6.00;;;;;;;5.84;100.00;101621.66;5053424;28;20060;-61
2022/04/30 00:49:46;;;;;;;5.93;5.70;;;;;;;5.86;100.00;101617.09;5042401;28;20484;-62
2022/04/30 00:52:17;;;;;;;6.22;5.93;;;;;;;5.85;100.00;101617.22;5053599;28;20541;-62
2022/04/30 00:54:48;;;;;;;6.43;6.13;;;;;;;5.83;100.00;101619.97;5061568;28;20036;-61
2022/04/30 00:57:18;;;;;;;6.45;6.15;;;;;;;5.77;100.00;101617.81;5055062;28;20089;-63
2022/04/30 00:59:45;;;;;;;6.35;6.05;;;;;;;5.71;100.00;101615.63;5053939;28;20035;-63
2022/04/30 01:02:11;;;;;;;6.43;6.13;;;;;;;5.68;100.00;101621.97;5053918;28;20064;-63
2022/04/30 01:04:37;;;;;;;5.97;5.70;;;;;;;5.66;100.00;101628.31;5052329;28;20060;-62
2022/04/30 01:07:06;;;;;;;6.60;6.30;;;;;;;5.64;100.00;101619.69;5053709;28;20035;-62
2022/04/30 01:09:35;;;;;;;6.38;6.07;;;;;;;5.63;100.00;101618.84;5045293;28;20108;-63
2022/04/30 01:12:03;;;;;;;6.40;6.10;;;;;;;5.62;100.00;101617.19;5051091;28;20472;-61
2022/04/30 01:14:34;;;;;;;6.38;6.07;;;;;;;5.61;100.00;101609.41;5052636;28;20124;-63
2022/04/30 01:17:05;;;;;;;6.47;6.18;;;;;;;5.60;100.00;101605.09;5048784;28;20032;-62
2022/04/30 01:19:37;;;;;;;6.13;5.82;;;;;;;5.56;100.00;101604.47;5053630;28;20024;-63
2022/04/30 01:22:11;;;;;;;6.30;6.00;;;;;;;5.59;100.00;101603.41;5049753;28;20415;-61
2022/04/30 01:24:37;;;;;;;6.65;6.35;;;;;;;5.54;100.00;101601.97;5052529;28;20028;-65
2022/04/30 01:27:05;;;;;;;6.43;6.13;;;;;;;5.48;100.00;101607.69;5053861;28;20032;-62
2022/04/30 01:29:32;;;;;;;6.05;5.80;;;;;;;5.51;100.00;101601.38;5050955;28;20392;-62
2022/04/30 01:37:27;;;;;;;5.80;5.60;;;;;;;5.46;100.00;101601.69;5052789;28;20078;-62
2022/04/30 01:39:56;;;;;;;6.32;6.03;;;;;;;5.35;100.00;101606.91;5052947;28;20033;-62
2022/04/30 01:42:22;;;;;;;5.95;5.72;;;;;;;5.39;100.00;101600.47;5053456;28;20031;-62
2022/04/30 01:44:48;;;;;;;6.30;6.00;;;;;;;5.38;100.00;101600.59;5052874;28;20480;-63
2022/04/30 01:47:18;;;;;;;6.57;6.28;;;;;;;5.32;100.00;101593.16;5046040;28;20033;-62
2022/04/30 01:49:44;;;;;;;6.50;6.20;;;;;;;5.38;100.00;101601.44;5044078;28;20101;-62
2022/04/30 01:52:13;;;;;;;6.20;5.90;;;;;;;5.39;100.00;101597.00;5053089;28;20079;-62
2022/04/30 01:54:38;;;;;;;6.35;6.05;;;;;;;5.34;100.00;101589.44;5044921;28;20397;-62
2022/04/30 01:57:04;;;;;;;6.38;6.07;;;;;;;5.28;100.00;101588.13;5048582;28;20029;-61
2022/04/30 01:59:31;;;;;;;6.20;5.90;;;;;;;5.26;100.00;101595.28;5053125;28;20110;-61
2022/04/30 02:01:57;;;;;;;6.15;5.85;;;;;;;5.24;100.00;101593.72;5052490;28;20466;-62
2022/04/30 02:04:23;;;;;;;6.20;5.90;;;;;;;5.03;100.00;101584.81;5064014;28;20388;-60
2022/04/30 02:06:49;;;;;;;6.40;6.10;;;;;;;4.99;100.00;101595.56;5052162;28;20029;-62
2022/04/30 02:09:15;;;;;;;6.32;6.03;;;;;;;4.98;100.00;101599.09;5039808;28;20079;-61
2022/04/30 02:11:45;;;;;;;6.57;6.28;;;;;;;5.09;100.00;101587.81;5051563;28;20020;-62
2022/04/30 02:14:13;;;;;;;6.40;6.10;;;;;;;5.11;100.00;101591.16;5052682;28;20097;-62
2022/04/30 02:16:41;;;;;;;6.35;6.05;;;;;;;5.11;100.00;101585.91;5052743;28;20441;-61
2022/04/30 02:19:11;;;;;;;6.13;5.82;;;;;;;5.18;100.00;101587.13;5052580;28;20028;-62
2022/04/30 02:21:37;;;;;;;6.38;6.07;;;;;;;5.11;100.00;101585.91;5051657;28;20021;-61
2022/04/30 02:24:03;;;;;;;6.10;5.80;;;;;;;5.02;100.00;101585.75;5040319;28;20024;-62
2022/04/30 02:26:29;;;;;;;6.57;6.28;;;;;;;5.02;100.00;101580.50;5045228;28;20485;-62
2022/04/30 02:28:57;;;;;;;6.10;5.80;;;;;;;4.94;100.00;101578.44;5051393;28;20044;-63
2022/04/30 02:31:25;;;;;;;6.60;6.30;;;;;;;4.85;100.00;101572.06;5052705;28;20329;-61
2022/04/30 02:33:55;;;;;;;6.63;6.32;;;;;;;4.93;100.00;101579.38;5055483;28;20107;-61
2022/04/30 02:36:26;;;;;;;6.40;6.10;;;;;;;4.94;100.00;101575.81;5055771;28;20039;-62
2022/04/30 02:38:56;;;;;;;6.03;5.80;;;;;;;4.90;100.00;101580.44;5059608;28;20079;-62
2022/04/30 02:41:22;;;;;;;6.55;6.25;;;;;;;4.83;100.00;101573.09;5044035;28;20096;-62
2022/04/30 02:43:50;;;;;;;6.32;6.03;;;;;;;4.82;100.00;101579.31;5052055;28;20477;-63
2022/04/30 02:46:16;;;;;;;7.05;6.72;;;;;;;4.80;100.00;101574.19;5049316;28;20021;-62
2022/04/30 02:48:41;;;;;;;6.40;6.10;;;;;;;4.81;100.00;101577.63;5041244;28;20031;-63
2022/04/30 02:51:07;;;;;;;6.57;6.28;;;;;;;4.78;100.00;101572.63;5044360;28;20025;-62
2022/04/30 02:53:33;;;;;;;6.05;5.75;;;;;;;4.80;100.00;101562.81;5044288;28;20021;-63
2022/04/30 02:55:59;;;;;;;6.40;6.10;;;;;;;4.89;100.00;101570.03;5043628;28;20028;-62
2022/04/30 03:01:09;;;;;;;6.55;6.25;;;;;;;4.89;100.00;101567.41;5047575;28;20506;-62
2022/04/30 03:03:34;;;;;;;5.80;5.60;;;;;;;4.99;100.00;101571.03;5047165;28;20033;-62
2022/04/30 03:06:01;;;;;;;5.80;5.60;;;;;;;5.15;100.00;101570.75;5051867;28;20377;-63
2022/04/30 03:08:27;;;;;;;5.90;5.70;;;;;;;5.36;100.00;101571.78;5049439;28;20120;-63
2022/04/30 03:10:55;;;;;;;6.18;5.88;;;;;;;5.42;100.00;101568.66;5050520;28;20056;-62
2022/04/30 03:13:21;;;;;;;6.22;5.93;;;;;;;5.53;100.00;101578.41;5050909;28;20029;-62
2022/04/30 03:15:50;;;;;;;6.13;5.85;;;;;;;5.67;100.00;101575.56;5050639;28;20087;-64
2022/04/30 03:23:32;;;;;;;6.15;5.90;;;;;;;6.57;100.00;101578.19;5047824;28;20025;-62
2022/04/30 03:25:58;;;;;;;5.78;5.57;;;;;;;6.83;100.00;101581.34;5051907;28;20063;-62
2022/04/30 03:28:24;;;;;;;6.00;5.75;;;;;;;7.32;100.00;101583.44;5063315;28;20033;-63
2022/04/30 03:30:49;;;;;;;5.95;5.75;;;;;;;7.75;100.00;101588.59;5041649;28;20413;-62
2022/04/30 03:33:15;;;;;;;6.13;5.85;;;;;;;8.05;100.00;101579.00;5060090;28;20175;-63
2022/04/30 03:35:41;;;;;;;6.45;6.15;;;;;;;8.44;100.00;101587.94;5049654;28;20028;-62
2022/04/30 03:38:08;;;;;;;6.60;6.30;;;;;;;8.93;100.00;101590.69;5051245;28;20021;-62
2022/04/30 03:40:40;;;;;;;6.38;6.07;;;;;;;9.98;100.00;101591.53;5051328;28;20111;-62
2022/04/30 03:43:07;;;;;;;7.22;6.93;;;;;;;11.34;100.00;101597.75;5048752;28;20401;-62
2022/04/30 03:45:33;;;;;;;6.47;6.18;;;;;;;12.43;100.00;101605.25;5047333;28;20025;-63
2022/04/30 03:47:59;;;;;;;6.38;6.07;;;;;;;12.96;97.40;101604.91;5047490;28;20044;-62
2022/04/30 03:50:24;;;;;;;6.63;6.32;;;;;;;13.83;90.12;101615.94;5047589;28;20029;-62
2022/04/30 03:52:50;;;;;;;6.80;6.50;;;;;;;13.63;89.25;101615.44;5050482;28;20025;-62
2022/04/30 03:55:16;;;;;;;6.53;6.22;;;;;;;14.83;83.80;101610.91;5050707;28;20029;-62
2022/04/30 03:57:42;;;;;;;6.65;6.35;;;;;;;15.71;78.82;101619.28;5051089;28;20449;-62
2022/04/30 04:00:10;;;;;;;6.80;6.50;;;;;;;15.82;77.07;101612.69;5040894;28;20029;-62
2022/04/30 04:02:39;;;;;;;6.70;6.40;;;;;;;16.61;72.07;101610.25;5049796;28;20036;-63
2022/04/30 04:05:07;;;;;;;6.60;6.30;;;;;;;16.88;72.41;101618.63;5053985;28;20017;-63
2022/04/30 04:07:33;;;;;;;6.95;6.65;;;;;;;15.26;77.20;101619.31;5042068;28;20029;-63
2022/04/30 04:09:58;;;;;;;6.75;6.45;;;;;;;15.06;78.12;101614.47;5052143;28;20034;-63
2022/04/30 04:12:24;;;;;;;6.70;6.40;;;;;;;14.85;75.17;101607.06;5054690;28;20025;-63
2022/04/30 04:17:40;;;;;;;7.35;7.05;;;;;;;14.08;80.73;101611.38;5052523;28;20036;-61
2022/04/30 04:20:10;;;;;;;7.00;6.70;;;;;;;13.51;82.60;101622.97;5063708;28;20037;-63
2022/04/30 04:22:36;;;;;;;6.78;6.47;;;;;;;13.68;82.37;101615.78;5054111;28;20588;-63
2022/04/30 04:27:54;;;;;;;7.00;6.70;;;;;;;14.56;78.65;101615.75;5051924;28;20452;-62
2022/04/30 04:30:23;;;;;;;7.10;6.80;;;;;;;14.16;79.86;101619.34;5054328;28;20033;-62
2022/04/30 04:32:49;;;;;;;6.70;6.40;;;;;;;13.25;83.76;101624.94;5060481;28;20483;-62
2022/04/30 04:35:15;;;;;;;7.10;6.80;;;;;;;12.92;87.85;101618.69;5044531;28;20072;-62
2022/04/30 04:37:45;;;;;;;7.03;6.72;;;;;;;12.70;90.95;101618.31;5046951;28;20070;-65
2022/04/30 04:40:11;;;;;;;7.10;6.80;;;;;;;12.85;94.03;101609.69;5041266;28;20103;-65
2022/04/30 04:42:39;;;;;;;7.22;6.93;;;;;;;12.67;90.24;101610.66;5043747;28;20026;-65
2022/04/30 04:45:05;;;;;;;7.07;6.78;;;;;;;13.03;90.56;101609.56;5040959;28;20021;-65
2022/04/30 04:47:31;;;;;;;6.82;6.53;;;;;;;12.33;94.07;101605.38;5049681;28;20576;-65
2022/04/30 04:49:56;;;;;;;6.95;6.65;;;;;;;12.42;92.95;101608.91;5042686;28;20044;-65
2022/04/30 04:52:22;;;;;;;6.97;6.68;;;;;;;12.81;91.73;101617.19;5056361;28;20028;-65
2022/04/30 04:54:48;;;;;;;7.07;6.78;;;;;;;12.69;92.43;101611.31;5052534;28;20036;-62
2022/04/30 04:57:15;;;;;;;6.90;6.60;;;;;;;12.96;91.44;101615.56;5053876;28;20072;-62
2022/04/30 04:59:40;;;;;;;7.55;7.25;;;;;;;13.64;87.72;101616.28;5051412;28;20033;-62
2022/04/30 05:02:06;;;;;;;6.88;6.57;;;;;;;13.95;85.43;101619.91;5044360;28;20045;-62
2022/04/30 05:04:33;;;;;;;7.10;6.80;;;;;;;14.04;85.88;101624.22;5050756;28;20029;-62
2022/04/30 05:06:59;;;;;;;7.18;6.88;;;;;;;14.31;83.18;101617.63;5048176;28;20107;-61
2022/04/30 05:09:28;;;;;;;6.80;6.50;;;;;;;14.65;81.40;101622.69;5050051;28;20028;-62
2022/04/30 05:11:54;;;;;;;7.50;7.20;;;;;;;16.21;75.19;101623.13;5055619;28;20033;-62
2022/04/30 05:14:20;;;;;;;7.10;6.80;;;;;;;16.68;71.82;101626.41;5065140;28;20138;-62
2022/04/30 05:16:45;;;;;;;7.22;6.93;;;;;;;19.23;63.45;101636.69;5066042;28;20116;-62
2022/04/30 05:19:11;;;;;;;7.20;6.90;;;;;;;18.73;63.49;101633.47;5059008;28;20032;-63
2022/04/30 05:21:36;;;;;;;7.40;7.00;;;;;;;20.45;56.33;101636.22;5055807;28;20492;-63
2022/04/30 05:24:02;;;;;;;6.95;6.65;;;;;;;21.21;52.61;101638.94;5054460;28;20032;-62
2022/04/30 05:26:28;;;;;;;6.95;6.65;;;;;;;22.31;51.03;101641.94;5056839;28;20027;-62
2022/04/30 05:28:53;;;;;;;7.28;6.97;;;;;;;22.42;49.82;101642.25;5056992;28;20055;-62
2022/04/30 05:31:19;;;;;;;7.18;6.88;;;;;;;22.36;48.21;101643.16;5067210;28;20028;-63
2022/04/30 05:33:44;;;;;;;7.20;6.90;;;;;;;22.44;47.66;101640.16;5058525;28;20453;-61
2022/04/30 05:36:10;;;;;;;7.30;7.00;;;;;;;23.16;46.26;101641.09;5053295;28;20029;-63
2022/04/30 05:38:35;;;;;;;7.07;6.78;;;;;;;23.27;45.77;101643.00;5059844;28;20031;-62
2022/04/30 05:41:02;;;;;;;7.25;6.95;;;;;;;23.46;46.20;101643.75;5057146;28;20481;-62
2022/04/30 05:43:28;;;;;;;7.20;6.90;;;;;;;23.75;44.24;101649.34;5053174;28;20723;-62
2022/04/30 05:45:54;;;;;;;7.25;6.95;;;;;;;24.26;43.28;101648.63;5055358;28;20083;-63
2022/04/30 05:48:19;;;;;;;7.28;6.97;;;;;;;23.94;45.17;101651.72;5056859;28;20029;-63
2022/04/30 05:50:45;;;;;;;7.30;7.00;;;;;;;24.39;42.64;101656.53;5061011;28;20042;-62
2022/04/30 05:53:11;;;;;;;7.38;7.07;;;;;;;24.78;40.66;101652.16;5057228;28;20472;-64
2022/04/30 05:55:36;;;;;;;7.18;6.88;;;;;;;25.02;41.38;101652.06;5049380;28;20104;-63
2022/04/30 05:58:02;;;;;;;7.07;6.78;;;;;;;25.78;39.05;101658.00;5053929;28;20076;-63
2022/04/30 06:00:27;;;;;;;7.50;7.20;;;;;;;25.95;38.40;101658.81;5049241;28;20025;-63
2022/04/30 06:02:54;;;;;;;7.30;7.00;;;;;;;25.71;39.71;101654.63;5064656;28;20020;-63
2022/04/30 06:05:23;;;;;;;7.10;6.80;;;;;;;25.84;38.48;101657.84;5056692;28;20012;-62
2022/04/30 06:07:49;;;;;;;7.22;6.93;;;;;;;26.13;37.77;101657.72;5063756;28;20032;-63
2022/04/30 06:10:15;;;;;;;7.60;7.30;;;;;;;26.95;36.24;101663.09;5048278;28;20205;-61
2022/04/30 06:12:41;;;;;;;7.47;7.18;;;;;;;25.62;38.74;101652.31;5052631;28;20491;-62
2022/04/30 06:15:07;;;;;;;7.50;7.20;;;;;;;26.58;36.40;101652.06;5066294;28;20067;-62
2022/04/30 06:17:33;;;;;;;7.50;7.20;;;;;;;26.64;36.52;101655.66;5054728;28;20094;-61
2022/04/30 06:19:59;;;;;;;7.15;6.85;;;;;;;27.90;34.33;101644.31;5049793;28;20040;-62
2022/04/30 06:22:25;;;;;;;7.28;6.97;;;;;;;27.47;34.95;101646.19;5050884;28;20025;-62
2022/04/30 06:24:50;;;;;;;7.13;6.82;;;;;;;27.52;34.32;101642.66;5040179;28;20024;-64
2022/04/30 06:27:16;;;;;;;7.10;6.80;;;;;;;28.39;33.41;101655.00;5041830;28;20396;-62
2022/04/30 06:29:42;;;;;;;7.28;6.97;;;;;;;27.74;33.93;101657.03;5058466;28;20044;-62
2022/04/30 06:32:08;;;;;;;7.22;6.93;;;;;;;28.99;32.46;101650.81;5046890;28;20025;-62
2022/04/30 06:34:34;;;;;;;7.30;7.00;;;;;;;28.07;32.95;101646.91;5050805;28;20496;-62
2022/04/30 06:37:00;;;;;;;7.20;6.90;;;;;;;28.84;32.43;101651.59;5055324;28;20108;-62
2022/04/30 06:39:25;;;;;;;7.25;6.95;;;;;;;28.85;31.77;101645.03;5052528;28;20048;-63
2022/04/30 06:41:51;;;;;;;7.20;6.90;;;;;;;28.71;31.36;101654.00;5053576;28;20040;-61
2022/04/30 06:44:16;;;;;;;7.20;6.90;;;;;;;28.88;31.58;101649.97;5049701;28;20155;-63
2022/04/30 06:46:42;;;;;;;7.20;6.90;;;;;;;28.65;32.02;101650.47;5063250;28;20070;-63
2022/04/30 06:49:08;;;;;;;7.43;7.13;;;;;;;29.22;31.52;101644.00;5054715;28;20024;-62
2022/04/30 06:51:34;;;;;;;7.30;7.00;;;;;;;29.96;29.88;101645.34;5048646;28;20119;-63
2022/04/30 06:59:28;;;;;;;;;;;;;;;29.67;30.17;101635.03;5058397;28;20056;-62
2022/04/30 07:02:01;;;;;;;7.40;7.10;;;;;;;30.49;29.85;101651.22;5052069;28;19916;-61
2022/04/30 07:04:29;;;;;;;7.22;6.93;;;;;;;29.36;30.09;101644.28;5057528;28;20029;-61
2022/04/30 07:06:55;;;;;;;7.30;7.00;;;;;;;29.07;30.52;101646.72;5053868;28;20027;-63
2022/04/30 07:09:21;;;;;;;7.35;7.05;;;;;;;30.04;29.48;101643.94;5065838;28;20378;-62
2022/04/30 07:11:47;;;;;;;7.38;7.07;;;;;;;30.48;28.66;101638.59;5060381;28;20115;-61
2022/04/30 07:14:13;;;;;;;7.45;7.15;;;;;;;29.07;30.16;101638.53;5055008;28;20392;-63
2022/04/30 07:16:39;;;;;;;7.30;7.00;;;;;;;29.91;28.99;101642.63;5057432;28;20113;-63
2022/04/30 07:19:05;;;;;;;7.38;7.07;;;;;;;30.58;28.47;101638.56;5043522;28;20032;-63
2022/04/30 07:21:33;;;;;;;7.50;7.20;;;;;;;30.28;28.04;101639.53;5049137;28;20086;-61
2022/04/30 07:23:59;;;;;;;7.50;7.20;;;;;;;30.37;28.84;101634.28;5048136;28;20029;-62
2022/04/30 07:26:25;;;;;;;7.40;7.10;;;;;;;27.29;32.86;101618.50;5054555;28;20032;-61
2022/04/30 07:28:52;;;;;;;7.47;7.18;;;;;;;27.73;31.93;101619.97;5064669;28;20024;-62
2022/04/30 07:31:18;;;;;;;7.28;6.97;;;;;;;28.01;31.39;101620.66;5056701;28;20023;-63
2022/04/30 07:33:43;;;;;;;7.40;7.10;;;;;;;28.00;32.02;101622.59;5050993;28;20033;-63
2022/04/30 07:36:09;;;;;;;7.45;7.15;;;;;;;28.14;32.13;101617.47;5054422;28;20472;-62
2022/04/30 07:38:35;;;;;;;7.20;6.90;;;;;;;27.66;32.34;101623.97;5058694;28;20496;-62
2022/04/30 07:41:00;;;;;;;7.50;7.20;;;;;;;29.36;30.24;101614.22;5055785;28;20024;-61
2022/04/30 07:43:26;;;;;;;7.30;7.00;;;;;;;28.85;30.22;101614.16;5068885;28;20050;-63
2022/04/30 07:45:51;;;;;;;7.53;7.22;;;;;;;28.62;30.24;101604.56;5059652;28;20057;-63
2022/04/30 07:48:17;;;;;;;7.35;7.05;;;;;;;27.29;30.73;101619.31;5055730;28;20476;-63
2022/04/30 07:50:45;;;;;;;7.38;7.07;;;;;;;26.23;31.99;101618.97;5056858;28;20540;-63
2022/04/30 07:53:14;;;;;;;8.00;7.70;;;;;;;20.74;42.86;101607.88;5045318;28;20029;-63
2022/04/30 07:55:41;;;;;;;7.50;7.20;;;;;;;22.50;43.33;101610.31;5058730;28;20102;-61
2022/04/30 07:58:07;;;;;;;7.65;7.35;;;;;;;24.99;35.33;101604.50;5053633;28;20477;-63
2022/04/30 08:00:32;;;;;;;7.50;7.20;;;;;;;25.93;33.26;101613.91;5056948;28;20068;-63
2022/04/30 08:02:59;;;;;;;7.40;7.10;;;;;;;19.04;43.65;101601.50;5061341;28;20025;-63
2022/04/30 08:05:25;;;;;;;7.38;7.07;;;;;;;21.83;40.41;101605.88;5055376;28;20488;-63
2022/04/30 08:07:52;;;;;;;7.22;6.93;;;;;;;22.21;38.83;101609.22;5057783;28;20029;-63
2022/04/30 08:10:18;;;;;;;7.10;6.80;;;;;;;22.30;38.63;101607.03;5060042;28;20032;-64
2022/04/30 08:12:44;;;;;;;7.38;7.07;;;;;;;19.82;42.77;101600.91;5054839;28;21610;-63
2022/04/30 08:15:10;;;;;;;7.70;7.40;;;;;;;23.15;37.97;101598.84;5060048;28;20017;-62
2022/04/30 08:17:38;;;;;;;7.30;7.00;;;;;;;24.26;35.58;101594.38;5066684;28;20028;-64
2022/04/30 08:20:05;;;;;;;7.10;6.80;;;;;;;21.49;40.74;101602.63;5055992;28;20158;-65
2022/04/30 08:22:31;;;;;;;7.55;7.25;;;;;;;23.20;36.34;101584.59;5052051;28;20075;-63
2022/04/30 08:24:56;;;;;;;7.32;7.03;;;;;;;21.10;39.48;101587.53;5056610;28;20032;-62
2022/04/30 08:27:22;;;;;;;7.80;7.50;;;;;;;23.72;35.84;101591.00;5053091;28;20025;-64
2022/04/30 08:29:48;;;;;;;7.40;7.10;;;;;;;23.23;36.50;101595.78;5058325;28;20036;-64
2022/04/30 08:32:15;;;;;;;7.35;7.05;;;;;;;24.26;35.23;101587.06;5061334;28;20033;-64
2022/04/30 08:34:41;;;;;;;7.00;6.70;;;;;;;23.15;37.00;101588.84;5056603;28;20048;-65
2022/04/30 08:37:07;;;;;;;7.28;6.97;;;;;;;22.67;37.56;101583.47;5059573;28;20029;-63
2022/04/30 08:39:32;;;;;;;7.30;7.00;;;;;;;22.12;37.46;101597.06;5062190;28;20043;-64
2022/04/30 08:41:58;;;;;;;7.50;7.20;;;;;;;22.91;37.00;101578.16;5049773;28;20026;-64
2022/04/30 08:44:24;;;;;;;7.50;7.20;;;;;;;21.83;36.45;101578.84;5057486;28;20064;-64
2022/04/30 08:46:50;;;;;;;7.53;7.22;;;;;;;20.79;38.41;101572.19;5051572;28;20522;-64
2022/04/30 08:49:15;;;;;;;7.90;7.60;;;;;;;21.40;37.15;101571.56;5050020;28;20079;-63
2022/04/30 08:51:41;;;;;;;7.45;7.15;;;;;;;22.37;35.39;101575.34;5055693;28;20035;-64
2022/04/30 08:54:07;;;;;;;7.30;7.00;;;;;;;23.09;34.79;101570.00;5052955;28;20557;-64
2022/04/30 08:56:36;;;;;;;7.55;7.25;;;;;;;20.83;36.29;101568.00;5067418;28;20025;-63
2022/04/30 08:59:04;;;;;;;6.97;6.68;;;;;;;21.27;36.23;101568.94;5051387;28;20524;-64
2022/04/30 09:01:32;;;;;;;7.03;6.72;;;;;;;19.44;39.20;101560.31;5063048;28;20029;-63
2022/04/30 09:03:58;;;;;;;7.07;6.78;;;;;;;20.67;38.02;101569.34;5056116;28;20081;-64
2022/04/30 09:06:27;;;;;;;7.22;6.93;;;;;;;20.47;36.54;101565.91;5054746;28;20029;-64
2022/04/30 09:08:52;;;;;;;7.05;6.75;;;;;;;21.43;36.11;101563.00;5050440;28;20020;-63
2022/04/30 09:11:26;;;;;;;7.15;6.85;;;;;;;21.68;35.58;101555.72;5057741;28;20035;-63
2022/04/30 09:13:52;;;;;;;7.30;7.00;;;;;;;20.04;38.06;101551.13;5058107;28;20123;-63
2022/04/30 09:16:22;;;;;;;7.20;6.90;;;;;;;21.49;35.60;101551.31;5056566;28;20090;-62
2022/04/30 09:18:55;;;;;;;7.32;7.03;;;;;;;21.84;35.47;101553.47;5058044;28;20028;-64
2022/04/30 09:21:20;;;;;;;7.07;6.78;;;;;;;21.12;35.94;101544.97;5061060;28;20038;-64
2022/04/30 09:23:46;;;;;;;7.45;7.15;;;;;;;21.18;36.61;101547.63;5046784;28;20033;-63
2022/04/30 09:26:12;;;;;;;7.38;7.07;;;;;;;20.17;38.05;101541.34;5058879;28;20044;-64
2022/04/30 09:28:39;;;;;;;7.55;7.25;;;;;;;20.48;37.68;101538.75;5060602;28;21706;-63
2022/04/30 09:31:07;;;;;;;7.40;7.10;;;;;;;20.53;37.81;101541.63;5056534;28;20029;-64
2022/04/30 09:33:34;;;;;;;7.40;7.10;;;;;;;21.25;36.00;101534.91;5058742;28;20440;-64
2022/04/30 09:38:47;;;;;;;7.38;7.07;;;;;;;19.05;41.55;101529.72;5058477;28;21080;-64
2022/04/30 09:41:12;;;;;;;7.53;7.22;;;;;;;20.48;39.77;101530.66;5053130;28;20475;-63
2022/04/30 09:43:38;;;;;;;6.82;6.53;;;;;;;18.74;42.53;101523.06;5063337;28;20039;-64
2022/04/30 09:46:08;;;;;;;7.82;7.53;;;;;;;20.06;40.13;101532.91;5049228;28;20036;-64
2022/04/30 09:54:05;;;;;;;7.20;6.90;;;;;;;18.45;41.79;101516.13;5063855;28;20044;-64
2022/04/30 09:56:39;;;;;;;7.40;7.10;;;;;;;20.22;39.20;101512.72;5061269;28;20029;-64
2022/04/30 09:59:10;;;;;;;7.43;7.13;;;;;;;19.60;39.69;101508.78;5064273;28;20072;-63
2022/04/30 10:01:37;;;;;;;7.05;6.75;;;;;;;20.18;37.73;101505.28;5063332;28;20052;-64
2022/04/30 10:04:17;;;;;;;7.35;7.05;;;;;;;20.67;38.25;101510.84;5056580;28;20025;-64
2022/04/30 10:06:48;;;;;;;7.28;6.97;;;;;;;19.48;39.85;101499.69;5050718;28;20111;-63
2022/04/30 10:09:21;;;;;;;7.40;7.10;;;;;;;19.76;39.93;101492.19;5049516;28;20115;-64
2022/04/30 10:12:03;;;;;;;7.10;6.80;;;;;;;19.82;39.63;101495.88;5054134;28;20036;-65
2022/04/30 10:14:51;;;;;;;6.90;6.60;;;;;;;19.34;40.93;101493.50;5053218;28;20152;-64
2022/04/30 10:17:20;;;;;;;6.90;6.60;;;;;;;19.93;38.72;101483.63;5051407;28;20130;-64
2022/04/30 10:20:07;;;;;;;7.03;6.72;;;;;;;19.51;39.45;101486.63;5054722;28;20112;-63
2022/04/30 10:22:32;;;;;;;6.93;6.63;;;;;;;20.04;39.72;101473.00;5046640;28;20060;-64
2022/04/30 10:25:00;;;;;;;6.90;6.60;;;;;;;18.89;40.60;101481.72;5058318;28;20028;-62
2022/04/30 10:27:40;;;;;;;7.30;7.00;;;;;;;19.75;39.51;101478.91;5061006;28;20031;-63
2022/04/30 10:30:18;;;;;;;7.25;6.95;;;;;;;19.43;41.25;101470.69;5056394;28;20120;-63
2022/04/30 10:32:55;;;;;;;7.10;6.80;;;;;;;21.05;37.58;101476.75;5055981;28;20036;-63
2022/04/30 10:35:34;;;;;;;7.20;6.90;;;;;;;21.19;37.38;101476.41;5044927;28;20617;-62
2022/04/30 10:38:19;;;;;;;7.10;6.80;;;;;;;20.89;37.98;101470.03;5053955;28;20085;-62
2022/04/30 10:40:51;;;;;;;7.30;7.00;;;;;;;21.72;37.17;101462.38;5049922;28;20035;-63
2022/04/30 10:43:32;;;;;;;7.13;6.82;;;;;;;21.68;36.06;101461.19;5036217;28;20173;-63
2022/04/30 10:45:59;;;;;;;6.90;6.60;;;;;;;21.87;35.95;101466.56;5059324;28;20021;-62
2022/04/30 10:48:25;;;;;;;7.50;7.20;;;;;;;20.39;36.39;101462.69;5060445;28;20131;-61
2022/04/30 10:51:10;;;;;;;6.90;6.60;;;;;;;19.98;36.14;101459.59;5048607;28;20032;-62
2022/04/30 10:53:40;;;;;;;6.80;6.50;;;;;;;20.13;34.88;101452.06;5053059;28;20036;-62
2022/04/30 10:56:07;;;;;;;6.70;6.40;;;;;;;20.01;35.80;101459.97;5048888;28;20024;-63
2022/04/30 10:58:36;;;;;;;6.95;6.65;;;;;;;20.07;35.97;101453.75;5045704;28;20041;-63
2022/04/30 11:01:20;;;;;;;6.90;6.60;;;;;;;19.57;37.28;101455.38;5051733;28;20037;-62
2022/04/30 11:03:50;;;;;;;7.63;7.32;;;;;;;19.66;36.85;101450.59;5045713;28;20026;-62
2022/04/30 11:06:23;;;;;;;7.10;6.80;;;;;;;18.24;41.19;101451.81;5050361;28;20511;-62
2022/04/30 11:08:58;;;;;;;6.60;6.30;;;;;;;18.49;41.73;101442.13;5047064;28;20024;-63
2022/04/30 11:11:24;;;;;;;6.70;6.40;;;;;;;17.56;43.00;101450.88;5050118;28;20024;-62
2022/04/30 11:14:03;;;;;;;7.32;7.03;;;;;;;17.29;43.78;101447.19;5052594;28;20075;-62
2022/04/30 11:16:33;;;;;;;7.07;6.78;;;;;;;16.81;43.57;101455.91;5056127;28;20123;-63
2022/04/30 11:19:10;;;;;;;7.20;6.90;;;;;;;17.06;45.11;101453.66;5054860;28;21063;-63
2022/04/30 11:21:37;;;;;;;6.50;6.20;;;;;;;17.13;43.99;101440.28;5047710;28;20028;-62
2022/04/30 11:24:04;;;;;;;6.93;6.63;;;;;;;16.91;44.87;101442.19;5045719;28;20031;-62
2022/04/30 11:26:30;;;;;;;7.97;7.65;;;;;;;16.85;45.98;101438.41;5057726;28;20029;-64
2022/04/30 11:28:57;;;;;;;6.85;6.55;;;;;;;16.39;50.15;101447.84;5045864;28;20029;-64
2022/04/30 11:31:23;;;;;;;6.90;6.60;;;;;;;16.22;53.00;101450.75;5050816;28;20066;-63
2022/04/30 11:33:49;;;;;;;7.25;6.95;;;;;;;16.58;55.71;101456.06;5052793;28;20041;-62
2022/04/30 11:36:15;;;;;;;7.05;6.75;;;;;;;16.03;57.73;101446.00;5056402;28;20028;-63
2022/04/30 11:38:50;;;;;;;7.40;7.10;;;;;;;15.52;59.82;101451.28;5048706;28;20033;-62
2022/04/30 11:41:15;;;;;;;7.10;6.80;;;;;;;14.51;66.74;101462.41;5050213;28;20492;-62
2022/04/30 11:43:41;;;;;;;8.48;8.07;;;;;;;14.35;68.71;101449.97;5050798;28;20078;-63
2022/04/30 11:46:06;;;;;;;7.72;7.43;;;;;;;13.91;71.15;101441.72;5050260;28;20048;-62
2022/04/30 11:48:40;;;;;;;7.50;7.20;;;;;;;14.36;70.20;101433.75;5045531;28;20039;-63
2022/04/30 11:51:07;;;;;;;7.22;6.93;;;;;;;13.97;71.65;101436.50;5050215;28;20025;-63
2022/04/30 11:53:34;;;;;;;7.38;7.07;;;;;;;14.36;70.10;101438.28;5045017;28;20028;-63
2022/04/30 11:56:00;;;;;;;7.03;6.72;;;;;;;14.26;69.85;101435.00;5037292;28;20029;-63
2022/04/30 11:58:25;;;;;;;7.10;6.80;;;;;;;14.34;70.20;101435.78;5058047;28;20064;-62